San Juan, PR

2:11 PM AST on June 23, 2017 (GMT -0400)
LORD Total Mangosta | | Change Station

Elev 15 ft 18.42 °N, 66.11 °W | Updated 26 seconds ago

Partly Cloudy
Partly Cloudy
88.7 °F
Feels Like 97 °F
N
11.9
Wind Variable Wind from East

Today
High -- | Low -- °F
--% Chance of Precip.
Yesterday
High -- | Low -- °F
Precip. -- in
Pressure 29.98 in
Visibility 10.0 miles
Clouds Few 2500 ft
Few 4500 ft
Scattered Clouds 8000 ft
Heat Index 97 °F
Dew Point 73 °F
Humidity 60%
Rainfall 0.04 in
Snow Depth Not available.
5:49 AM 7:03 PM
Waning Crescent, 0% visible
METAR TJSJ 231756Z 05014G21KT 10SM FEW025 FEW045 SCT080 31/23 A2998 RMK AO2 SLP151 VCSH SE-S T03060228 10311 20272 58009
Pressure 29.98 in
Visibility 10.0 miles
Clouds Few 2500 ft
Few 4500 ft
Scattered Clouds 8000 ft
Heat Index 97 °F
Dew Point 73 °F
Humidity 60%
Rainfall 0.04 in
Snow Depth Not available.
5:49 AM 7:03 PM
Waning Crescent, 0% visible
METAR TJSJ 231756Z 05014G21KT 10SM FEW025 FEW045 SCT080 31/23 A2998 RMK AO2 SLP151 VCSH SE-S T03060228 10311 20272 58009

Get Severe Weather Alerts

Thanks for signing up!

Be on the lookout for a verification email in your inbox.

You'll start receiving the daily forecast at 6 AM.

×

10-Day Weather Forecast

Almanac

Astronomy

Jun. 23, 2017 Rise Set
Actual Time
Civil Twilight
Nautical Twilight
Astronomical Twilight
Moon
Length of Visible Light
Length of Day
Tomorrow will be .
, % of the Moon is Illuminated

Today's Extremes

State Highs State Lows

Community

WunderPhotos

Category 6

Welcome to Category 6. This is the collective home for Weather Underground's featured writeups by Dr. Jeff Masters (right), Bob Henson (left), Chris Burt, and other regular contributors.

Nearby

Air Quality

  Air Quality AQ Index Pollutant
Not available.

Snow Depth

Station Depth Elevation

Earthquake Activity

City Distance Mag. Time & Date
Minimum magnitude displayed is 2.5.

Coastal Water Temperatures

Place Temperature

Stations

Nearby Weather Stations

Station Location Temp. Windchill Dew Point Humidity Wind Precip. Elev Updated Type
                   

Watches & Warnings

There are currently no watches in effect.